sensor_id;sensor_type;location;lat;lon;timestamp;P1;durP1;ratioP1;P2;durP2;ratioP2
20966;SDS011;10642;50.682;18.510;2023-02-28T00:01:11;20.90;;;10.80;;
20966;SDS011;10642;50.682;18.510;2023-02-28T00:03:38;19.47;;;10.83;;
20966;SDS011;10642;50.682;18.510;2023-02-28T00:06:06;19.50;;;10.23;;
20966;SDS011;10642;50.682;18.510;2023-02-28T00:08:33;18.73;;;8.80;;
20966;SDS011;10642;50.682;18.510;2023-02-28T00:11:03;17.77;;;9.57;;
20966;SDS011;10642;50.682;18.510;2023-02-28T00:13:31;17.30;;;8.90;;
20966;SDS011;10642;50.682;18.510;2023-02-28T00:15:59;17.93;;;9.07;;
20966;SDS011;10642;50.682;18.510;2023-02-28T00:18:26;16.10;;;9.20;;
20966;SDS011;10642;50.682;18.510;2023-02-28T00:20:54;14.30;;;7.73;;
20966;SDS011;10642;50.682;18.510;2023-02-28T00:23:21;14.07;;;8.57;;
20966;SDS011;10642;50.682;18.510;2023-02-28T00:25:48;13.83;;;8.37;;
20966;SDS011;10642;50.682;18.510;2023-02-28T00:28:15;16.93;;;9.03;;
20966;SDS011;10642;50.682;18.510;2023-02-28T00:30:42;15.73;;;8.47;;
20966;SDS011;10642;50.682;18.510;2023-02-28T00:33:09;17.20;;;8.60;;
20966;SDS011;10642;50.682;18.510;2023-02-28T00:35:36;14.63;;;8.60;;
20966;SDS011;10642;50.682;18.510;2023-02-28T00:38:03;17.23;;;8.83;;
20966;SDS011;10642;50.682;18.510;2023-02-28T00:40:30;14.73;;;8.27;;
20966;SDS011;10642;50.682;18.510;2023-02-28T00:42:57;15.07;;;8.07;;
20966;SDS011;10642;50.682;18.510;2023-02-28T00:45:23;15.97;;;8.03;;
20966;SDS011;10642;50.682;18.510;2023-02-28T00:47:50;18.00;;;8.77;;
20966;SDS011;10642;50.682;18.510;2023-02-28T00:50:20;15.60;;;9.33;;
20966;SDS011;10642;50.682;18.510;2023-02-28T00:52:47;16.63;;;8.77;;
20966;SDS011;10642;50.682;18.510;2023-02-28T00:55:14;17.83;;;8.37;;
20966;SDS011;10642;50.682;18.510;2023-02-28T00:57:41;15.43;;;8.87;;
20966;SDS011;10642;50.682;18.510;2023-02-28T01:00:08;18.60;;;9.60;;
20966;SDS011;10642;50.682;18.510;2023-02-28T01:02:35;14.40;;;8.83;;
20966;SDS011;10642;50.682;18.510;2023-02-28T01:05:02;17.27;;;10.63;;
20966;SDS011;10642;50.682;18.510;2023-02-28T01:07:29;19.07;;;10.40;;
20966;SDS011;10642;50.682;18.510;2023-02-28T01:09:56;19.50;;;11.73;;
20966;SDS011;10642;50.682;18.510;2023-02-28T01:12:24;22.10;;;10.93;;
20966;SDS011;10642;50.682;18.510;2023-02-28T01:14:51;21.47;;;10.53;;
20966;SDS011;10642;50.682;18.510;2023-02-28T01:17:20;24.07;;;11.23;;
20966;SDS011;10642;50.682;18.510;2023-02-28T01:19:47;18.93;;;11.30;;
20966;SDS011;10642;50.682;18.510;2023-02-28T01:22:14;16.77;;;9.67;;
20966;SDS011;10642;50.682;18.510;2023-02-28T01:24:41;18.57;;;9.20;;
20966;SDS011;10642;50.682;18.510;2023-02-28T01:27:11;18.30;;;9.83;;
20966;SDS011;10642;50.682;18.510;2023-02-28T01:29:38;15.90;;;9.20;;
20966;SDS011;10642;50.682;18.510;2023-02-28T01:32:05;16.47;;;9.10;;
20966;SDS011;10642;50.682;18.510;2023-02-28T01:34:34;15.70;;;8.60;;
20966;SDS011;10642;50.682;18.510;2023-02-28T01:37:02;15.37;;;8.37;;
20966;SDS011;10642;50.682;18.510;2023-02-28T01:39:30;15.67;;;8.00;;
20966;SDS011;10642;50.682;18.510;2023-02-28T01:41:57;14.73;;;8.93;;
20966;SDS011;10642;50.682;18.510;2023-02-28T01:47:09;16.63;;;8.50;;
20966;SDS011;10642;50.682;18.510;2023-02-28T01:49:36;16.97;;;9.43;;
20966;SDS011;10642;50.682;18.510;2023-02-28T01:52:03;13.83;;;8.20;;
20966;SDS011;10642;50.682;18.510;2023-02-28T01:54:31;16.30;;;9.30;;
20966;SDS011;10642;50.682;18.510;2023-02-28T01:57:04;20.80;;;11.47;;
20966;SDS011;10642;50.682;18.510;2023-02-28T01:59:34;19.53;;;10.27;;
20966;SDS011;10642;50.682;18.510;2023-02-28T02:02:02;19.23;;;10.60;;
20966;SDS011;10642;50.682;18.510;2023-02-28T02:04:32;15.50;;;9.50;;
20966;SDS011;10642;50.682;18.510;2023-02-28T02:07:02;15.20;;;8.37;;
20966;SDS011;10642;50.682;18.510;2023-02-28T02:09:29;14.83;;;7.93;;
20966;SDS011;10642;50.682;18.510;2023-02-28T02:11:56;12.97;;;7.47;;
20966;SDS011;10642;50.682;18.510;2023-02-28T02:16:58;14.00;;;7.67;;
20966;SDS011;10642;50.682;18.510;2023-02-28T02:35:47;11.37;;;6.60;;
20966;SDS011;10642;50.682;18.510;2023-02-28T02:38:23;14.63;;;6.50;;
20966;SDS011;10642;50.682;18.510;2023-02-28T02:43:35;13.23;;;7.00;;
20966;SDS011;10642;50.682;18.510;2023-02-28T02:46:04;12.00;;;6.13;;
20966;SDS011;10642;50.682;18.510;2023-02-28T02:48:33;15.03;;;7.30;;
20966;SDS011;10642;50.682;18.510;2023-02-28T02:51:01;13.53;;;6.57;;
20966;SDS011;10642;50.682;18.510;2023-02-28T02:53:32;11.00;;;6.60;;
20966;SDS011;10642;50.682;18.510;2023-02-28T02:56:00;12.07;;;6.80;;
20966;SDS011;10642;50.682;18.510;2023-02-28T02:58:30;14.77;;;7.60;;
20966;SDS011;10642;50.682;18.510;2023-02-28T03:00:59;16.60;;;8.73;;
20966;SDS011;10642;50.682;18.510;2023-02-28T03:03:27;13.10;;;8.03;;
20966;SDS011;10642;50.682;18.510;2023-02-28T03:05:57;13.77;;;7.43;;
20966;SDS011;10642;50.682;18.510;2023-02-28T03:08:24;13.37;;;7.80;;
20966;SDS011;10642;50.682;18.510;2023-02-28T03:10:52;15.73;;;8.63;;
20966;SDS011;10642;50.682;18.510;2023-02-28T03:21:34;16.67;;;9.07;;
20966;SDS011;10642;50.682;18.510;2023-02-28T03:24:04;15.50;;;7.83;;
20966;SDS011;10642;50.682;18.510;2023-02-28T03:26:32;15.53;;;8.10;;
20966;SDS011;10642;50.682;18.510;2023-02-28T03:31:29;14.37;;;7.33;;
20966;SDS011;10642;50.682;18.510;2023-02-28T03:36:41;12.93;;;7.47;;
20966;SDS011;10642;50.682;18.510;2023-02-28T03:39:16;14.53;;;8.07;;
20966;SDS011;10642;50.682;18.510;2023-02-28T03:41:45;15.00;;;7.90;;
20966;SDS011;10642;50.682;18.510;2023-02-28T03:44:16;15.03;;;7.80;;
20966;SDS011;10642;50.682;18.510;2023-02-28T03:46:46;12.57;;;7.07;;
20966;SDS011;10642;50.682;18.510;2023-02-28T03:49:19;13.97;;;7.43;;
20966;SDS011;10642;50.682;18.510;2023-02-28T03:51:47;13.47;;;7.60;;
20966;SDS011;10642;50.682;18.510;2023-02-28T03:54:18;14.90;;;7.57;;
20966;SDS011;10642;50.682;18.510;2023-02-28T03:57:06;13.53;;;6.70;;
20966;SDS011;10642;50.682;18.510;2023-02-28T03:59:47;28.97;;;14.27;;
20966;SDS011;10642;50.682;18.510;2023-02-28T04:02:14;68.40;;;34.13;;
20966;SDS011;10642;50.682;18.510;2023-02-28T04:04:41;108.03;;;52.57;;
20966;SDS011;10642;50.682;18.510;2023-02-28T04:07:15;88.63;;;43.40;;
20966;SDS011;10642;50.682;18.510;2023-02-28T04:09:42;82.13;;;39.83;;
20966;SDS011;10642;50.682;18.510;2023-02-28T04:12:09;134.57;;;62.57;;
20966;SDS011;10642;50.682;18.510;2023-02-28T04:14:36;120.87;;;48.37;;
20966;SDS011;10642;50.682;18.510;2023-02-28T04:17:03;47.57;;;22.00;;
20966;SDS011;10642;50.682;18.510;2023-02-28T04:19:30;24.60;;;12.30;;
20966;SDS011;10642;50.682;18.510;2023-02-28T04:21:57;26.40;;;12.87;;
20966;SDS011;10642;50.682;18.510;2023-02-28T04:24:24;19.73;;;10.03;;
20966;SDS011;10642;50.682;18.510;2023-02-28T04:26:52;24.27;;;13.07;;
20966;SDS011;10642;50.682;18.510;2023-02-28T04:29:21;20.13;;;12.40;;
20966;SDS011;10642;50.682;18.510;2023-02-28T04:31:48;24.30;;;14.97;;
20966;SDS011;10642;50.682;18.510;2023-02-28T04:34:15;41.53;;;20.33;;
20966;SDS011;10642;50.682;18.510;2023-02-28T04:36:43;36.93;;;22.07;;
20966;SDS011;10642;50.682;18.510;2023-02-28T04:39:09;28.93;;;17.87;;
20966;SDS011;10642;50.682;18.510;2023-02-28T04:41:36;37.43;;;19.90;;
20966;SDS011;10642;50.682;18.510;2023-02-28T04:44:03;41.03;;;22.47;;
20966;SDS011;10642;50.682;18.510;2023-02-28T04:46:30;37.43;;;22.90;;
20966;SDS011;10642;50.682;18.510;2023-02-28T04:48:57;34.07;;;21.77;;
20966;SDS011;10642;50.682;18.510;2023-02-28T04:51:25;39.13;;;23.30;;
20966;SDS011;10642;50.682;18.510;2023-02-28T04:53:52;38.57;;;18.67;;
20966;SDS011;10642;50.682;18.510;2023-02-28T04:56:19;25.07;;;15.57;;
20966;SDS011;10642;50.682;18.510;2023-02-28T04:58:47;21.77;;;13.67;;
20966;SDS011;10642;50.682;18.510;2023-02-28T05:03:54;20.07;;;12.37;;
20966;SDS011;10642;50.682;18.510;2023-02-28T05:06:22;21.10;;;11.70;;
20966;SDS011;10642;50.682;18.510;2023-02-28T05:08:50;23.53;;;13.47;;
20966;SDS011;10642;50.682;18.510;2023-02-28T05:11:21;22.03;;;13.90;;
20966;SDS011;10642;50.682;18.510;2023-02-28T05:13:49;24.97;;;15.30;;
20966;SDS011;10642;50.682;18.510;2023-02-28T05:16:16;24.63;;;13.83;;
20966;SDS011;10642;50.682;18.510;2023-02-28T05:18:43;30.13;;;17.47;;
20966;SDS011;10642;50.682;18.510;2023-02-28T05:21:23;21.40;;;13.03;;
20966;SDS011;10642;50.682;18.510;2023-02-28T05:23:51;28.83;;;14.50;;
20966;SDS011;10642;50.682;18.510;2023-02-28T05:26:18;41.30;;;19.90;;
20966;SDS011;10642;50.682;18.510;2023-02-28T05:28:45;38.77;;;16.50;;
20966;SDS011;10642;50.682;18.510;2023-02-28T05:31:12;21.63;;;10.97;;
20966;SDS011;10642;50.682;18.510;2023-02-28T05:33:40;56.93;;;17.27;;
20966;SDS011;10642;50.682;18.510;2023-02-28T05:36:07;23.17;;;11.53;;
20966;SDS011;10642;50.682;18.510;2023-02-28T05:38:34;21.00;;;10.90;;
20966;SDS011;10642;50.682;18.510;2023-02-28T05:41:07;15.63;;;8.57;;
20966;SDS011;10642;50.682;18.510;2023-02-28T05:43:34;14.83;;;7.87;;
20966;SDS011;10642;50.682;18.510;2023-02-28T05:46:02;113.93;;;23.20;;
20966;SDS011;10642;50.682;18.510;2023-02-28T05:48:30;63.17;;;16.87;;
20966;SDS011;10642;50.682;18.510;2023-02-28T05:50:57;74.30;;;16.10;;
20966;SDS011;10642;50.682;18.510;2023-02-28T05:53:24;96.90;;;22.83;;
20966;SDS011;10642;50.682;18.510;2023-02-28T05:55:51;68.23;;;16.97;;
20966;SDS011;10642;50.682;18.510;2023-02-28T05:58:18;31.00;;;10.30;;
20966;SDS011;10642;50.682;18.510;2023-02-28T06:00:45;20.27;;;9.93;;
20966;SDS011;10642;50.682;18.510;2023-02-28T06:03:12;16.17;;;9.30;;
20966;SDS011;10642;50.682;18.510;2023-02-28T06:05:39;18.90;;;10.97;;
20966;SDS011;10642;50.682;18.510;2023-02-28T06:08:05;30.10;;;15.63;;
20966;SDS011;10642;50.682;18.510;2023-02-28T06:10:34;32.40;;;16.60;;
20966;SDS011;10642;50.682;18.510;2023-02-28T06:13:01;27.30;;;15.03;;
20966;SDS011;10642;50.682;18.510;2023-02-28T06:15:31;33.27;;;17.07;;
20966;SDS011;10642;50.682;18.510;2023-02-28T06:17:58;25.37;;;16.37;;
20966;SDS011;10642;50.682;18.510;2023-02-28T06:20:26;27.27;;;14.33;;
20966;SDS011;10642;50.682;18.510;2023-02-28T06:22:56;27.27;;;14.07;;
20966;SDS011;10642;50.682;18.510;2023-02-28T06:25:25;24.20;;;14.13;;
20966;SDS011;10642;50.682;18.510;2023-02-28T06:27:53;24.43;;;14.17;;
20966;SDS011;10642;50.682;18.510;2023-02-28T06:30:20;25.13;;;14.37;;
20966;SDS011;10642;50.682;18.510;2023-02-28T06:32:52;25.17;;;14.17;;
20966;SDS011;10642;50.682;18.510;2023-02-28T06:35:18;58.63;;;25.53;;
20966;SDS011;10642;50.682;18.510;2023-02-28T06:37:45;48.47;;;23.37;;
20966;SDS011;10642;50.682;18.510;2023-02-28T06:40:13;39.10;;;19.43;;
20966;SDS011;10642;50.682;18.510;2023-02-28T06:42:40;35.27;;;17.60;;
20966;SDS011;10642;50.682;18.510;2023-02-28T06:45:07;35.97;;;18.00;;
20966;SDS011;10642;50.682;18.510;2023-02-28T06:47:36;31.57;;;16.33;;
20966;SDS011;10642;50.682;18.510;2023-02-28T06:50:03;27.03;;;13.80;;
20966;SDS011;10642;50.682;18.510;2023-02-28T06:52:31;25.43;;;14.03;;
20966;SDS011;10642;50.682;18.510;2023-02-28T06:54:58;27.63;;;13.90;;
20966;SDS011;10642;50.682;18.510;2023-02-28T06:57:28;25.80;;;12.67;;
20966;SDS011;10642;50.682;18.510;2023-02-28T07:00:00;27.73;;;13.67;;
20966;SDS011;10642;50.682;18.510;2023-02-28T07:02:27;30.03;;;13.40;;
20966;SDS011;10642;50.682;18.510;2023-02-28T07:04:54;26.47;;;14.63;;
20966;SDS011;10642;50.682;18.510;2023-02-28T07:07:21;29.00;;;14.73;;
20966;SDS011;10642;50.682;18.510;2023-02-28T07:09:48;25.63;;;13.37;;
20966;SDS011;10642;50.682;18.510;2023-02-28T07:12:15;31.40;;;15.40;;
20966;SDS011;10642;50.682;18.510;2023-02-28T07:14:42;30.50;;;16.30;;
20966;SDS011;10642;50.682;18.510;2023-02-28T07:17:09;34.30;;;16.37;;
20966;SDS011;10642;50.682;18.510;2023-02-28T07:19:38;31.23;;;14.57;;
20966;SDS011;10642;50.682;18.510;2023-02-28T07:22:06;27.10;;;13.43;;
20966;SDS011;10642;50.682;18.510;2023-02-28T07:24:33;28.70;;;13.23;;
20966;SDS011;10642;50.682;18.510;2023-02-28T07:27:00;27.13;;;11.97;;
20966;SDS011;10642;50.682;18.510;2023-02-28T07:29:28;32.23;;;12.57;;
20966;SDS011;10642;50.682;18.510;2023-02-28T07:31:55;18.10;;;9.90;;
20966;SDS011;10642;50.682;18.510;2023-02-28T07:34:22;18.20;;;10.07;;
20966;SDS011;10642;50.682;18.510;2023-02-28T07:36:49;14.77;;;8.47;;
20966;SDS011;10642;50.682;18.510;2023-02-28T07:39:20;15.27;;;8.10;;
20966;SDS011;10642;50.682;18.510;2023-02-28T07:41:47;15.27;;;8.40;;
20966;SDS011;10642;50.682;18.510;2023-02-28T07:44:14;16.10;;;8.73;;
20966;SDS011;10642;50.682;18.510;2023-02-28T07:46:41;17.07;;;8.33;;
20966;SDS011;10642;50.682;18.510;2023-02-28T07:49:08;18.63;;;10.13;;
20966;SDS011;10642;50.682;18.510;2023-02-28T07:51:35;14.33;;;8.87;;
20966;SDS011;10642;50.682;18.510;2023-02-28T07:54:04;14.83;;;8.50;;
20966;SDS011;10642;50.682;18.510;2023-02-28T07:56:31;14.80;;;8.23;;
20966;SDS011;10642;50.682;18.510;2023-02-28T07:58:58;17.50;;;9.77;;
20966;SDS011;10642;50.682;18.510;2023-02-28T08:01:25;16.50;;;9.00;;
20966;SDS011;10642;50.682;18.510;2023-02-28T08:03:52;18.93;;;8.53;;
20966;SDS011;10642;50.682;18.510;2023-02-28T08:06:22;16.17;;;8.53;;
20966;SDS011;10642;50.682;18.510;2023-02-28T08:08:49;16.73;;;8.40;;
20966;SDS011;10642;50.682;18.510;2023-02-28T08:11:17;14.73;;;7.77;;
20966;SDS011;10642;50.682;18.510;2023-02-28T08:13:44;16.07;;;8.40;;
20966;SDS011;10642;50.682;18.510;2023-02-28T08:16:12;15.37;;;8.73;;
20966;SDS011;10642;50.682;18.510;2023-02-28T08:18:41;13.90;;;8.30;;
20966;SDS011;10642;50.682;18.510;2023-02-28T08:21:09;12.50;;;6.20;;
20966;SDS011;10642;50.682;18.510;2023-02-28T08:23:36;13.83;;;7.63;;
20966;SDS011;10642;50.682;18.510;2023-02-28T08:26:03;11.77;;;6.20;;
20966;SDS011;10642;50.682;18.510;2023-02-28T08:28:30;13.07;;;6.67;;
20966;SDS011;10642;50.682;18.510;2023-02-28T08:30:58;14.03;;;6.83;;
20966;SDS011;10642;50.682;18.510;2023-02-28T08:33:25;13.23;;;7.13;;
20966;SDS011;10642;50.682;18.510;2023-02-28T08:35:53;12.10;;;6.40;;
20966;SDS011;10642;50.682;18.510;2023-02-28T08:38:21;16.33;;;9.03;;
20966;SDS011;10642;50.682;18.510;2023-02-28T08:40:48;18.03;;;8.87;;
20966;SDS011;10642;50.682;18.510;2023-02-28T08:43:15;11.33;;;6.03;;
20966;SDS011;10642;50.682;18.510;2023-02-28T08:45:42;10.60;;;5.87;;
20966;SDS011;10642;50.682;18.510;2023-02-28T08:48:09;15.83;;;7.83;;
20966;SDS011;10642;50.682;18.510;2023-02-28T08:50:36;13.50;;;6.67;;
20966;SDS011;10642;50.682;18.510;2023-02-28T08:53:03;18.00;;;8.37;;
20966;SDS011;10642;50.682;18.510;2023-02-28T08:55:30;14.83;;;7.40;;
20966;SDS011;10642;50.682;18.510;2023-02-28T08:57:57;14.47;;;7.93;;
20966;SDS011;10642;50.682;18.510;2023-02-28T09:00:25;17.60;;;8.83;;
20966;SDS011;10642;50.682;18.510;2023-02-28T09:02:52;12.67;;;7.07;;
20966;SDS011;10642;50.682;18.510;2023-02-28T09:05:18;18.90;;;7.97;;
20966;SDS011;10642;50.682;18.510;2023-02-28T09:07:45;15.00;;;8.47;;
20966;SDS011;10642;50.682;18.510;2023-02-28T09:10:12;13.73;;;7.60;;
20966;SDS011;10642;50.682;18.510;2023-02-28T09:12:39;15.33;;;8.20;;
20966;SDS011;10642;50.682;18.510;2023-02-28T09:15:06;12.43;;;7.20;;
20966;SDS011;10642;50.682;18.510;2023-02-28T09:17:33;13.70;;;6.40;;
20966;SDS011;10642;50.682;18.510;2023-02-28T09:20:00;11.40;;;6.03;;
20966;SDS011;10642;50.682;18.510;2023-02-28T09:22:27;13.33;;;6.33;;
20966;SDS011;10642;50.682;18.510;2023-02-28T09:24:54;12.20;;;6.77;;
20966;SDS011;10642;50.682;18.510;2023-02-28T09:27:21;12.10;;;6.97;;
20966;SDS011;10642;50.682;18.510;2023-02-28T09:29:48;13.93;;;7.13;;
20966;SDS011;10642;50.682;18.510;2023-02-28T09:32:15;16.73;;;9.60;;
20966;SDS011;10642;50.682;18.510;2023-02-28T09:34:42;12.60;;;7.50;;
20966;SDS011;10642;50.682;18.510;2023-02-28T09:37:09;10.83;;;5.77;;
20966;SDS011;10642;50.682;18.510;2023-02-28T09:39:36;9.43;;;5.40;;
20966;SDS011;10642;50.682;18.510;2023-02-28T09:42:03;13.97;;;6.73;;
20966;SDS011;10642;50.682;18.510;2023-02-28T09:44:40;10.97;;;6.03;;
20966;SDS011;10642;50.682;18.510;2023-02-28T09:49:39;15.13;;;7.37;;
20966;SDS011;10642;50.682;18.510;2023-02-28T09:52:10;13.80;;;6.63;;
20966;SDS011;10642;50.682;18.510;2023-02-28T09:54:38;11.57;;;6.67;;
20966;SDS011;10642;50.682;18.510;2023-02-28T09:59:51;11.07;;;5.73;;
20966;SDS011;10642;50.682;18.510;2023-02-28T10:02:28;12.30;;;6.60;;
20966;SDS011;10642;50.682;18.510;2023-02-28T10:05:00;11.97;;;6.50;;
20966;SDS011;10642;50.682;18.510;2023-02-28T10:07:46;15.43;;;6.23;;
20966;SDS011;10642;50.682;18.510;2023-02-28T10:10:27;12.43;;;6.23;;
20966;SDS011;10642;50.682;18.510;2023-02-28T10:12:56;13.43;;;7.30;;
20966;SDS011;10642;50.682;18.510;2023-02-28T10:15:25;12.07;;;6.70;;
20966;SDS011;10642;50.682;18.510;2023-02-28T10:17:58;13.83;;;7.47;;
20966;SDS011;10642;50.682;18.510;2023-02-28T10:20:35;13.53;;;6.60;;
20966;SDS011;10642;50.682;18.510;2023-02-28T10:25:35;14.43;;;7.33;;
20966;SDS011;10642;50.682;18.510;2023-02-28T10:28:09;13.93;;;6.90;;
20966;SDS011;10642;50.682;18.510;2023-02-28T10:30:36;16.67;;;8.07;;
20966;SDS011;10642;50.682;18.510;2023-02-28T10:33:04;13.80;;;6.60;;
20966;SDS011;10642;50.682;18.510;2023-02-28T10:35:31;14.07;;;7.37;;
20966;SDS011;10642;50.682;18.510;2023-02-28T10:38:00;13.43;;;7.20;;
20966;SDS011;10642;50.682;18.510;2023-02-28T10:40:35;13.93;;;7.83;;
20966;SDS011;10642;50.682;18.510;2023-02-28T10:43:03;13.83;;;7.27;;
20966;SDS011;10642;50.682;18.510;2023-02-28T10:45:31;14.13;;;7.77;;
20966;SDS011;10642;50.682;18.510;2023-02-28T10:48:26;15.53;;;7.73;;
20966;SDS011;10642;50.682;18.510;2023-02-28T10:50:53;23.30;;;11.07;;
20966;SDS011;10642;50.682;18.510;2023-02-28T11:01:24;10.93;;;7.27;;
20966;SDS011;10642;50.682;18.510;2023-02-28T11:03:51;18.73;;;11.17;;
20966;SDS011;10642;50.682;18.510;2023-02-28T11:06:20;18.27;;;9.57;;
20966;SDS011;10642;50.682;18.510;2023-02-28T11:11:25;20.70;;;8.80;;
20966;SDS011;10642;50.682;18.510;2023-02-28T11:13:56;16.20;;;8.17;;
20966;SDS011;10642;50.682;18.510;2023-02-28T11:16:31;12.97;;;7.73;;
20966;SDS011;10642;50.682;18.510;2023-02-28T11:18:58;13.03;;;7.50;;
20966;SDS011;10642;50.682;18.510;2023-02-28T11:21:27;16.70;;;7.83;;
20966;SDS011;10642;50.682;18.510;2023-02-28T11:24:05;14.53;;;7.40;;
20966;SDS011;10642;50.682;18.510;2023-02-28T11:26:43;14.70;;;7.60;;
20966;SDS011;10642;50.682;18.510;2023-02-28T11:32:05;15.57;;;7.83;;
20966;SDS011;10642;50.682;18.510;2023-02-28T11:34:32;14.37;;;8.13;;
20966;SDS011;10642;50.682;18.510;2023-02-28T11:37:00;18.00;;;8.10;;
20966;SDS011;10642;50.682;18.510;2023-02-28T11:39:28;14.20;;;8.40;;
20966;SDS011;10642;50.682;18.510;2023-02-28T11:46:52;15.63;;;7.80;;
20966;SDS011;10642;50.682;18.510;2023-02-28T11:51:51;15.33;;;7.83;;
20966;SDS011;10642;50.682;18.510;2023-02-28T12:02:25;15.37;;;8.20;;
20966;SDS011;10642;50.682;18.510;2023-02-28T12:05:01;12.93;;;6.73;;
20966;SDS011;10642;50.682;18.510;2023-02-28T12:07:47;13.47;;;7.67;;
20966;SDS011;10642;50.682;18.510;2023-02-28T12:10:21;16.00;;;8.47;;
20966;SDS011;10642;50.682;18.510;2023-02-28T12:28:23;15.17;;;7.97;;
20966;SDS011;10642;50.682;18.510;2023-02-28T12:31:04;18.67;;;8.50;;
20966;SDS011;10642;50.682;18.510;2023-02-28T12:33:34;18.67;;;9.23;;
20966;SDS011;10642;50.682;18.510;2023-02-28T12:36:04;15.37;;;8.70;;
20966;SDS011;10642;50.682;18.510;2023-02-28T12:38:36;15.50;;;8.57;;
20966;SDS011;10642;50.682;18.510;2023-02-28T12:43:36;15.87;;;8.40;;
20966;SDS011;10642;50.682;18.510;2023-02-28T12:46:09;18.37;;;9.50;;
20966;SDS011;10642;50.682;18.510;2023-02-28T12:48:39;17.07;;;9.30;;
20966;SDS011;10642;50.682;18.510;2023-02-28T12:51:06;13.47;;;7.60;;
20966;SDS011;10642;50.682;18.510;2023-02-28T13:09:03;17.17;;;8.73;;
20966;SDS011;10642;50.682;18.510;2023-02-28T13:14:05;18.33;;;9.07;;
20966;SDS011;10642;50.682;18.510;2023-02-28T13:16:53;14.50;;;7.87;;
20966;SDS011;10642;50.682;18.510;2023-02-28T13:19:21;15.97;;;8.93;;
20966;SDS011;10642;50.682;18.510;2023-02-28T13:21:50;18.07;;;9.20;;
20966;SDS011;10642;50.682;18.510;2023-02-28T13:29:32;25.63;;;11.40;;
20966;SDS011;10642;50.682;18.510;2023-02-28T13:34:38;16.53;;;9.50;;
20966;SDS011;10642;50.682;18.510;2023-02-28T13:47:51;21.27;;;12.63;;
20966;SDS011;10642;50.682;18.510;2023-02-28T13:52:52;19.47;;;10.80;;
20966;SDS011;10642;50.682;18.510;2023-02-28T13:55:24;21.00;;;11.17;;
20966;SDS011;10642;50.682;18.510;2023-02-28T13:58:10;18.57;;;10.93;;
20966;SDS011;10642;50.682;18.510;2023-02-28T14:06:14;22.20;;;11.40;;
20966;SDS011;10642;50.682;18.510;2023-02-28T14:08:36;19.43;;;11.93;;
20966;SDS011;10642;50.682;18.510;2023-02-28T14:11:08;19.13;;;11.87;;
20966;SDS011;10642;50.682;18.510;2023-02-28T14:13:38;18.40;;;10.90;;
20966;SDS011;10642;50.682;18.510;2023-02-28T14:16:21;20.10;;;12.03;;
20966;SDS011;10642;50.682;18.510;2023-02-28T14:21:20;21.40;;;11.60;;
20966;SDS011;10642;50.682;18.510;2023-02-28T14:23:58;25.03;;;14.50;;
20966;SDS011;10642;50.682;18.510;2023-02-28T14:29:06;24.83;;;14.23;;
20966;SDS011;10642;50.682;18.510;2023-02-28T14:31:43;20.33;;;11.80;;
20966;SDS011;10642;50.682;18.510;2023-02-28T14:34:16;30.80;;;13.83;;
20966;SDS011;10642;50.682;18.510;2023-02-28T14:36:47;23.40;;;13.10;;
20966;SDS011;10642;50.682;18.510;2023-02-28T14:39:16;22.67;;;12.73;;
20966;SDS011;10642;50.682;18.510;2023-02-28T14:41:43;27.13;;;12.57;;
20966;SDS011;10642;50.682;18.510;2023-02-28T14:46:41;26.80;;;14.63;;
20966;SDS011;10642;50.682;18.510;2023-02-28T14:49:19;25.00;;;13.07;;
20966;SDS011;10642;50.682;18.510;2023-02-28T14:51:50;24.93;;;12.83;;
20966;SDS011;10642;50.682;18.510;2023-02-28T14:54:28;21.50;;;12.13;;
20966;SDS011;10642;50.682;18.510;2023-02-28T14:56:55;24.87;;;12.57;;
20966;SDS011;10642;50.682;18.510;2023-02-28T14:59:27;26.43;;;14.50;;
20966;SDS011;10642;50.682;18.510;2023-02-28T15:04:40;25.07;;;13.93;;
20966;SDS011;10642;50.682;18.510;2023-02-28T15:07:09;26.00;;;15.00;;
20966;SDS011;10642;50.682;18.510;2023-02-28T15:09:36;24.17;;;13.67;;
20966;SDS011;10642;50.682;18.510;2023-02-28T15:12:03;23.47;;;12.53;;
20966;SDS011;10642;50.682;18.510;2023-02-28T15:14:30;25.07;;;13.57;;
20966;SDS011;10642;50.682;18.510;2023-02-28T15:16:59;23.13;;;12.77;;
20966;SDS011;10642;50.682;18.510;2023-02-28T15:19:38;21.27;;;12.23;;
20966;SDS011;10642;50.682;18.510;2023-02-28T15:22:11;22.53;;;12.40;;
20966;SDS011;10642;50.682;18.510;2023-02-28T15:24:47;24.50;;;12.33;;
20966;SDS011;10642;50.682;18.510;2023-02-28T15:27:20;23.40;;;13.00;;
20966;SDS011;10642;50.682;18.510;2023-02-28T15:29:48;22.20;;;12.73;;
20966;SDS011;10642;50.682;18.510;2023-02-28T15:32:28;29.83;;;17.17;;
20966;SDS011;10642;50.682;18.510;2023-02-28T15:34:55;33.30;;;15.13;;
20966;SDS011;10642;50.682;18.510;2023-02-28T15:40:10;24.63;;;12.30;;
20966;SDS011;10642;50.682;18.510;2023-02-28T15:42:38;23.50;;;13.33;;
20966;SDS011;10642;50.682;18.510;2023-02-28T15:45:05;24.93;;;14.00;;
20966;SDS011;10642;50.682;18.510;2023-02-28T15:47:32;22.87;;;13.33;;
20966;SDS011;10642;50.682;18.510;2023-02-28T15:50:06;23.63;;;12.67;;
20966;SDS011;10642;50.682;18.510;2023-02-28T15:55:10;21.43;;;11.70;;
20966;SDS011;10642;50.682;18.510;2023-02-28T15:57:39;28.50;;;13.33;;
20966;SDS011;10642;50.682;18.510;2023-02-28T16:00:09;36.90;;;16.43;;
20966;SDS011;10642;50.682;18.510;2023-02-28T16:02:38;37.93;;;16.33;;
20966;SDS011;10642;50.682;18.510;2023-02-28T16:07:39;54.43;;;20.40;;
20966;SDS011;10642;50.682;18.510;2023-02-28T16:10:06;46.73;;;21.97;;
20966;SDS011;10642;50.682;18.510;2023-02-28T16:12:34;43.87;;;23.60;;
20966;SDS011;10642;50.682;18.510;2023-02-28T16:15:03;63.60;;;28.40;;
20966;SDS011;10642;50.682;18.510;2023-02-28T16:17:35;54.23;;;28.70;;
20966;SDS011;10642;50.682;18.510;2023-02-28T16:20:18;54.40;;;27.33;;
20966;SDS011;10642;50.682;18.510;2023-02-28T16:22:45;44.27;;;26.37;;
20966;SDS011;10642;50.682;18.510;2023-02-28T16:25:13;38.83;;;21.23;;
20966;SDS011;10642;50.682;18.510;2023-02-28T16:27:40;42.20;;;23.73;;
20966;SDS011;10642;50.682;18.510;2023-02-28T16:30:19;45.20;;;24.87;;
20966;SDS011;10642;50.682;18.510;2023-02-28T16:32:46;55.17;;;28.40;;
20966;SDS011;10642;50.682;18.510;2023-02-28T16:35:13;45.13;;;27.23;;
20966;SDS011;10642;50.682;18.510;2023-02-28T16:37:40;47.13;;;25.53;;
20966;SDS011;10642;50.682;18.510;2023-02-28T16:40:10;48.17;;;25.77;;
20966;SDS011;10642;50.682;18.510;2023-02-28T16:42:39;47.67;;;23.70;;
20966;SDS011;10642;50.682;18.510;2023-02-28T16:45:11;39.37;;;21.27;;
20966;SDS011;10642;50.682;18.510;2023-02-28T16:47:38;46.17;;;23.87;;
20966;SDS011;10642;50.682;18.510;2023-02-28T16:50:11;56.63;;;28.43;;
20966;SDS011;10642;50.682;18.510;2023-02-28T16:52:39;51.93;;;24.87;;
20966;SDS011;10642;50.682;18.510;2023-02-28T16:55:06;52.77;;;28.10;;
20966;SDS011;10642;50.682;18.510;2023-02-28T16:57:33;77.03;;;35.70;;
20966;SDS011;10642;50.682;18.510;2023-02-28T17:00:00;68.47;;;35.37;;
20966;SDS011;10642;50.682;18.510;2023-02-28T17:02:26;68.17;;;32.37;;
20966;SDS011;10642;50.682;18.510;2023-02-28T17:04:53;65.87;;;31.13;;